<?xml version="1.0" encoding="utf-8"?>
<gpx xmlns:xsi="http://www.w3.org/2001/XMLSchema-instance" xmlns:xsd="http://www.w3.org/2001/XMLSchema" version="1.1" creator="Shapelink.com" xmlns="http://www.topografix.com/GPX/1/1" xmlns:gpxtpx="http://www.garmin.com/xmlschemas/TrackPointExtension/v1">
  <metadata>
    <name>Gåing 3.68 km, 2012-03-03</name>
    <desc></desc>
    <author><name>Mikael Blom</name></author> 
    <time>2012-03-03T18:18:50Z</time>
  </metadata>
  <trk>
    <name>Gåing 3.68 km, 2012-03-03</name>
    <trkseg>
      <trkpt lat="59.9789583" lon="17.7398665">
        <ele>39.0707</ele>
        <time>2012-03-03T18:18:50Z</time>
      </trkpt>
      <trkpt lat="59.9789568" lon="17.7397988">
        <ele>38.1094</ele>
        <time>2012-03-03T18:18:55Z</time>
      </trkpt>
      <trkpt lat="59.9789795" lon="17.7396885">
        <ele>36.6675</ele>
        <time>2012-03-03T18:19:00Z</time>
      </trkpt>
      <trkpt lat="59.9789709" lon="17.7396489">
        <ele>37.1481</ele>
        <time>2012-03-03T18:19:02Z</time>
      </trkpt>
      <trkpt lat="59.9789616" lon="17.7395258">
        <ele>35.7061</ele>
        <time>2012-03-03T18:19:06Z</time>
      </trkpt>
      <trkpt lat="59.9789527" lon="17.73948">
        <ele>35.7061</ele>
        <time>2012-03-03T18:19:08Z</time>
      </trkpt>
      <trkpt lat="59.9789133" lon="17.7394248">
        <ele>35.7061</ele>
        <time>2012-03-03T18:19:13Z</time>
      </trkpt>
      <trkpt lat="59.9788569" lon="17.7393505">
        <ele>36.1868</ele>
        <time>2012-03-03T18:19:19Z</time>
      </trkpt>
      <trkpt lat="59.9788371" lon="17.7393435">
        <ele>35.7061</ele>
        <time>2012-03-03T18:19:21Z</time>
      </trkpt>
      <trkpt lat="59.9787585" lon="17.7393612">
        <ele>34.7449</ele>
        <time>2012-03-03T18:19:27Z</time>
      </trkpt>
      <trkpt lat="59.978664" lon="17.7393532">
        <ele>34.2642</ele>
        <time>2012-03-03T18:19:33Z</time>
      </trkpt>
      <trkpt lat="59.9785693" lon="17.7393378">
        <ele>34.7449</ele>
        <time>2012-03-03T18:19:39Z</time>
      </trkpt>
      <trkpt lat="59.9784826" lon="17.7393766">
        <ele>34.2642</ele>
        <time>2012-03-03T18:19:44Z</time>
      </trkpt>
      <trkpt lat="59.9784123" lon="17.7393257">
        <ele>36.1868</ele>
        <time>2012-03-03T18:19:49Z</time>
      </trkpt>
      <trkpt lat="59.9783523" lon="17.7392949">
        <ele>37.6287</ele>
        <time>2012-03-03T18:19:53Z</time>
      </trkpt>
      <trkpt lat="59.9782539" lon="17.7392124">
        <ele>39.0707</ele>
        <time>2012-03-03T18:20:00Z</time>
      </trkpt>
      <trkpt lat="59.97824" lon="17.739212">
        <ele>38.5901</ele>
        <time>2012-03-03T18:20:01Z</time>
      </trkpt>
      <trkpt lat="59.9781291" lon="17.7391658">
        <ele>38.5901</ele>
        <time>2012-03-03T18:20:08Z</time>
      </trkpt>
      <trkpt lat="59.9780495" lon="17.7391103">
        <ele>38.1094</ele>
        <time>2012-03-03T18:20:13Z</time>
      </trkpt>
      <trkpt lat="59.9779665" lon="17.7390431">
        <ele>40.5128</ele>
        <time>2012-03-03T18:20:18Z</time>
      </trkpt>
      <trkpt lat="59.9778789" lon="17.7390417">
        <ele>38.5901</ele>
        <time>2012-03-03T18:20:24Z</time>
      </trkpt>
      <trkpt lat="59.9777989" lon="17.7390376">
        <ele>36.6675</ele>
        <time>2012-03-03T18:20:29Z</time>
      </trkpt>
      <trkpt lat="59.9777393" lon="17.7389818">
        <ele>35.2255</ele>
        <time>2012-03-03T18:20:34Z</time>
      </trkpt>
      <trkpt lat="59.9777032" lon="17.7389934">
        <ele>33.7834</ele>
        <time>2012-03-03T18:20:38Z</time>
      </trkpt>
      <trkpt lat="59.9776196" lon="17.7389478">
        <ele>35.2255</ele>
        <time>2012-03-03T18:20:44Z</time>
      </trkpt>
      <trkpt lat="59.9775415" lon="17.7389622">
        <ele>33.7834</ele>
        <time>2012-03-03T18:20:49Z</time>
      </trkpt>
      <trkpt lat="59.9774512" lon="17.739027">
        <ele>29.4575</ele>
        <time>2012-03-03T18:20:56Z</time>
      </trkpt>
      <trkpt lat="59.9773763" lon="17.7390719">
        <ele>27.0543</ele>
        <time>2012-03-03T18:21:01Z</time>
      </trkpt>
      <trkpt lat="59.9772898" lon="17.7391487">
        <ele>26.0929</ele>
        <time>2012-03-03T18:21:07Z</time>
      </trkpt>
      <trkpt lat="59.9772153" lon="17.7392024">
        <ele>25.1317</ele>
        <time>2012-03-03T18:21:12Z</time>
      </trkpt>
      <trkpt lat="59.977178" lon="17.7392403">
        <ele>25.6123</ele>
        <time>2012-03-03T18:21:15Z</time>
      </trkpt>
      <trkpt lat="59.9770873" lon="17.7392761">
        <ele>26.5736</ele>
        <time>2012-03-03T18:21:21Z</time>
      </trkpt>
      <trkpt lat="59.9769827" lon="17.7393092">
        <ele>28.4962</ele>
        <time>2012-03-03T18:21:28Z</time>
      </trkpt>
      <trkpt lat="59.9768903" lon="17.7393491">
        <ele>28.0155</ele>
        <time>2012-03-03T18:21:34Z</time>
      </trkpt>
      <trkpt lat="59.9767977" lon="17.7393641">
        <ele>28.4962</ele>
        <time>2012-03-03T18:21:40Z</time>
      </trkpt>
      <trkpt lat="59.9766739" lon="17.7394217">
        <ele>28.9769</ele>
        <time>2012-03-03T18:21:48Z</time>
      </trkpt>
      <trkpt lat="59.9766049" lon="17.7394589">
        <ele>28.4962</ele>
        <time>2012-03-03T18:21:53Z</time>
      </trkpt>
      <trkpt lat="59.9765393" lon="17.7395269">
        <ele>28.4962</ele>
        <time>2012-03-03T18:21:59Z</time>
      </trkpt>
      <trkpt lat="59.9764244" lon="17.7396858">
        <ele>31.8607</ele>
        <time>2012-03-03T18:22:09Z</time>
      </trkpt>
      <trkpt lat="59.9763295" lon="17.739751">
        <ele>33.3029</ele>
        <time>2012-03-03T18:22:15Z</time>
      </trkpt>
      <trkpt lat="59.9762335" lon="17.739737">
        <ele>33.3029</ele>
        <time>2012-03-03T18:22:21Z</time>
      </trkpt>
      <trkpt lat="59.976159" lon="17.7397055">
        <ele>33.3029</ele>
        <time>2012-03-03T18:22:25Z</time>
      </trkpt>
      <trkpt lat="59.9760772" lon="17.7396639">
        <ele>33.3029</ele>
        <time>2012-03-03T18:22:30Z</time>
      </trkpt>
      <trkpt lat="59.9760014" lon="17.739552">
        <ele>30.4188</ele>
        <time>2012-03-03T18:22:36Z</time>
      </trkpt>
      <trkpt lat="59.975958" lon="17.7394836">
        <ele>28.4962</ele>
        <time>2012-03-03T18:22:39Z</time>
      </trkpt>
      <trkpt lat="59.9758678" lon="17.7393294">
        <ele>25.6123</ele>
        <time>2012-03-03T18:22:45Z</time>
      </trkpt>
      <trkpt lat="59.9757825" lon="17.7391643">
        <ele>25.1317</ele>
        <time>2012-03-03T18:22:52Z</time>
      </trkpt>
      <trkpt lat="59.9757092" lon="17.739026">
        <ele>24.1703</ele>
        <time>2012-03-03T18:22:58Z</time>
      </trkpt>
      <trkpt lat="59.9756344" lon="17.738896">
        <ele>24.651</ele>
        <time>2012-03-03T18:23:04Z</time>
      </trkpt>
      <trkpt lat="59.9756156" lon="17.738847">
        <ele>24.1703</ele>
        <time>2012-03-03T18:23:06Z</time>
      </trkpt>
      <trkpt lat="59.975565" lon="17.7387229">
        <ele>22.7283</ele>
        <time>2012-03-03T18:23:11Z</time>
      </trkpt>
      <trkpt lat="59.9755322" lon="17.7386273">
        <ele>22.2476</ele>
        <time>2012-03-03T18:23:13Z</time>
      </trkpt>
      <trkpt lat="59.9754735" lon="17.7385681">
        <ele>22.2476</ele>
        <time>2012-03-03T18:23:17Z</time>
      </trkpt>
      <trkpt lat="59.9754583" lon="17.738541">
        <ele>22.2476</ele>
        <time>2012-03-03T18:23:18Z</time>
      </trkpt>
      <trkpt lat="59.975414" lon="17.7384868">
        <ele>21.2864</ele>
        <time>2012-03-03T18:23:22Z</time>
      </trkpt>
      <trkpt lat="59.9753639" lon="17.7383982">
        <ele>20.8057</ele>
        <time>2012-03-03T18:23:27Z</time>
      </trkpt>
      <trkpt lat="59.9753442" lon="17.7383659">
        <ele>20.8057</ele>
        <time>2012-03-03T18:23:29Z</time>
      </trkpt>
      <trkpt lat="59.9753157" lon="17.7383167">
        <ele>20.8057</ele>
        <time>2012-03-03T18:23:32Z</time>
      </trkpt>
      <trkpt lat="59.9752841" lon="17.738253">
        <ele>20.8057</ele>
        <time>2012-03-03T18:23:36Z</time>
      </trkpt>
      <trkpt lat="59.9752153" lon="17.7381482">
        <ele>21.2864</ele>
        <time>2012-03-03T18:23:42Z</time>
      </trkpt>
      <trkpt lat="59.9751383" lon="17.7380157">
        <ele>21.2864</ele>
        <time>2012-03-03T18:23:49Z</time>
      </trkpt>
      <trkpt lat="59.975071" lon="17.7378904">
        <ele>21.2864</ele>
        <time>2012-03-03T18:23:55Z</time>
      </trkpt>
      <trkpt lat="59.9750054" lon="17.7377709">
        <ele>20.8057</ele>
        <time>2012-03-03T18:24:01Z</time>
      </trkpt>
      <trkpt lat="59.9749266" lon="17.7376283">
        <ele>19.3638</ele>
        <time>2012-03-03T18:24:08Z</time>
      </trkpt>
      <trkpt lat="59.9748579" lon="17.7375154">
        <ele>18.8831</ele>
        <time>2012-03-03T18:24:14Z</time>
      </trkpt>
      <trkpt lat="59.9747892" lon="17.7373916">
        <ele>18.4023</ele>
        <time>2012-03-03T18:24:20Z</time>
      </trkpt>
      <trkpt lat="59.9747173" lon="17.7372009">
        <ele>18.4023</ele>
        <time>2012-03-03T18:24:27Z</time>
      </trkpt>
      <trkpt lat="59.9746519" lon="17.7370647">
        <ele>17.9218</ele>
        <time>2012-03-03T18:24:33Z</time>
      </trkpt>
      <trkpt lat="59.9745868" lon="17.7368632">
        <ele>17.9218</ele>
        <time>2012-03-03T18:24:41Z</time>
      </trkpt>
      <trkpt lat="59.9745241" lon="17.7366585">
        <ele>18.4023</ele>
        <time>2012-03-03T18:24:49Z</time>
      </trkpt>
      <trkpt lat="59.9744807" lon="17.736469">
        <ele>18.8831</ele>
        <time>2012-03-03T18:24:56Z</time>
      </trkpt>
      <trkpt lat="59.9744226" lon="17.7361919">
        <ele>20.8057</ele>
        <time>2012-03-03T18:25:06Z</time>
      </trkpt>
      <trkpt lat="59.9743781" lon="17.7359147">
        <ele>22.2476</ele>
        <time>2012-03-03T18:25:16Z</time>
      </trkpt>
      <trkpt lat="59.9743373" lon="17.7356199">
        <ele>22.7283</ele>
        <time>2012-03-03T18:25:27Z</time>
      </trkpt>
      <trkpt lat="59.9742988" lon="17.7353097">
        <ele>22.7283</ele>
        <time>2012-03-03T18:25:39Z</time>
      </trkpt>
      <trkpt lat="59.9742807" lon="17.7349953">
        <ele>23.6896</ele>
        <time>2012-03-03T18:25:50Z</time>
      </trkpt>
      <trkpt lat="59.9742668" lon="17.7347382">
        <ele>24.1703</ele>
        <time>2012-03-03T18:25:59Z</time>
      </trkpt>
      <trkpt lat="59.9742881" lon="17.7346991">
        <ele>24.1703</ele>
        <time>2012-03-03T18:26:03Z</time>
      </trkpt>
      <trkpt lat="59.9743135" lon="17.7347471">
        <ele>23.6896</ele>
        <time>2012-03-03T18:26:04Z</time>
      </trkpt>
      <trkpt lat="59.9743413" lon="17.7349097">
        <ele>25.1317</ele>
        <time>2012-03-03T18:26:09Z</time>
      </trkpt>
      <trkpt lat="59.9743599" lon="17.7350461">
        <ele>26.0929</ele>
        <time>2012-03-03T18:26:13Z</time>
      </trkpt>
      <trkpt lat="59.9743787" lon="17.7352781">
        <ele>27.5349</ele>
        <time>2012-03-03T18:26:20Z</time>
      </trkpt>
      <trkpt lat="59.9744142" lon="17.7355994">
        <ele>28.9769</ele>
        <time>2012-03-03T18:26:30Z</time>
      </trkpt>
      <trkpt lat="59.9744562" lon="17.7358422">
        <ele>30.4188</ele>
        <time>2012-03-03T18:26:38Z</time>
      </trkpt>
      <trkpt lat="59.9745134" lon="17.7360623">
        <ele>31.8607</ele>
        <time>2012-03-03T18:26:45Z</time>
      </trkpt>
      <trkpt lat="59.9745625" lon="17.7362297">
        <ele>32.8223</ele>
        <time>2012-03-03T18:26:51Z</time>
      </trkpt>
      <trkpt lat="59.9746252" lon="17.7364442">
        <ele>35.2255</ele>
        <time>2012-03-03T18:26:58Z</time>
      </trkpt>
      <trkpt lat="59.9746987" lon="17.7366367">
        <ele>37.6287</ele>
        <time>2012-03-03T18:27:05Z</time>
      </trkpt>
      <trkpt lat="59.9747148" lon="17.7366861">
        <ele>37.6287</ele>
        <time>2012-03-03T18:27:07Z</time>
      </trkpt>
      <trkpt lat="59.9747651" lon="17.7368041">
        <ele>37.6287</ele>
        <time>2012-03-03T18:27:12Z</time>
      </trkpt>
      <trkpt lat="59.9748486" lon="17.7370322">
        <ele>36.6675</ele>
        <time>2012-03-03T18:27:21Z</time>
      </trkpt>
      <trkpt lat="59.9749018" lon="17.7372357">
        <ele>34.2642</ele>
        <time>2012-03-03T18:27:28Z</time>
      </trkpt>
      <trkpt lat="59.9749438" lon="17.737351">
        <ele>33.3029</ele>
        <time>2012-03-03T18:27:33Z</time>
      </trkpt>
      <trkpt lat="59.9749848" lon="17.737478">
        <ele>32.3416</ele>
        <time>2012-03-03T18:27:38Z</time>
      </trkpt>
      <trkpt lat="59.9750204" lon="17.7375352">
        <ele>32.3416</ele>
        <time>2012-03-03T18:27:41Z</time>
      </trkpt>
      <trkpt lat="59.9750788" lon="17.7375975">
        <ele>31.8607</ele>
        <time>2012-03-03T18:27:45Z</time>
      </trkpt>
      <trkpt lat="59.9750997" lon="17.7376444">
        <ele>31.3801</ele>
        <time>2012-03-03T18:27:47Z</time>
      </trkpt>
      <trkpt lat="59.9751785" lon="17.7377842">
        <ele>30.4188</ele>
        <time>2012-03-03T18:27:54Z</time>
      </trkpt>
      <trkpt lat="59.9752585" lon="17.7379206">
        <ele>29.4575</ele>
        <time>2012-03-03T18:28:01Z</time>
      </trkpt>
      <trkpt lat="59.9752671" lon="17.737941">
        <ele>28.9769</ele>
        <time>2012-03-03T18:28:02Z</time>
      </trkpt>
      <trkpt lat="59.9753469" lon="17.7380903">
        <ele>28.9769</ele>
        <time>2012-03-03T18:28:09Z</time>
      </trkpt>
      <trkpt lat="59.9754214" lon="17.7382256">
        <ele>29.4575</ele>
        <time>2012-03-03T18:28:16Z</time>
      </trkpt>
      <trkpt lat="59.9755194" lon="17.7383924">
        <ele>29.9381</ele>
        <time>2012-03-03T18:28:24Z</time>
      </trkpt>
      <trkpt lat="59.9756114" lon="17.7385504">
        <ele>29.4575</ele>
        <time>2012-03-03T18:28:32Z</time>
      </trkpt>
      <trkpt lat="59.9756835" lon="17.7386967">
        <ele>28.4962</ele>
        <time>2012-03-03T18:28:39Z</time>
      </trkpt>
      <trkpt lat="59.9757359" lon="17.7387918">
        <ele>28.9769</ele>
        <time>2012-03-03T18:28:44Z</time>
      </trkpt>
      <trkpt lat="59.9758014" lon="17.7389099">
        <ele>28.4962</ele>
        <time>2012-03-03T18:28:50Z</time>
      </trkpt>
      <trkpt lat="59.9758643" lon="17.7390238">
        <ele>27.5349</ele>
        <time>2012-03-03T18:28:56Z</time>
      </trkpt>
      <trkpt lat="59.9759576" lon="17.7391829">
        <ele>28.0155</ele>
        <time>2012-03-03T18:29:04Z</time>
      </trkpt>
      <trkpt lat="59.9760439" lon="17.7393515">
        <ele>28.9769</ele>
        <time>2012-03-03T18:29:12Z</time>
      </trkpt>
      <trkpt lat="59.9761438" lon="17.7395424">
        <ele>29.9381</ele>
        <time>2012-03-03T18:29:22Z</time>
      </trkpt>
      <trkpt lat="59.9762047" lon="17.7397224">
        <ele>30.8995</ele>
        <time>2012-03-03T18:29:30Z</time>
      </trkpt>
      <trkpt lat="59.9762481" lon="17.7398267">
        <ele>31.8607</ele>
        <time>2012-03-03T18:29:36Z</time>
      </trkpt>
      <trkpt lat="59.9762759" lon="17.7399003">
        <ele>33.7834</ele>
        <time>2012-03-03T18:29:42Z</time>
      </trkpt>
      <trkpt lat="59.9762912" lon="17.739939">
        <ele>34.2642</ele>
        <time>2012-03-03T18:29:46Z</time>
      </trkpt>
      <trkpt lat="59.9763139" lon="17.7400375">
        <ele>34.7449</ele>
        <time>2012-03-03T18:29:51Z</time>
      </trkpt>
      <trkpt lat="59.9763102" lon="17.7400978">
        <ele>34.7449</ele>
        <time>2012-03-03T18:29:53Z</time>
      </trkpt>
      <trkpt lat="59.9762645" lon="17.7402542">
        <ele>34.7449</ele>
        <time>2012-03-03T18:29:59Z</time>
      </trkpt>
      <trkpt lat="59.9762119" lon="17.7404222">
        <ele>34.7449</ele>
        <time>2012-03-03T18:30:06Z</time>
      </trkpt>
      <trkpt lat="59.9761984" lon="17.7404484">
        <ele>35.2255</ele>
        <time>2012-03-03T18:30:07Z</time>
      </trkpt>
      <trkpt lat="59.9761275" lon="17.740617">
        <ele>34.2642</ele>
        <time>2012-03-03T18:30:13Z</time>
      </trkpt>
      <trkpt lat="59.9760803" lon="17.7407453">
        <ele>33.3029</ele>
        <time>2012-03-03T18:30:19Z</time>
      </trkpt>
      <trkpt lat="59.9760254" lon="17.7409519">
        <ele>33.7834</ele>
        <time>2012-03-03T18:30:27Z</time>
      </trkpt>
      <trkpt lat="59.9759808" lon="17.7411087">
        <ele>34.7449</ele>
        <time>2012-03-03T18:30:33Z</time>
      </trkpt>
      <trkpt lat="59.9759594" lon="17.7411548">
        <ele>34.7449</ele>
        <time>2012-03-03T18:30:35Z</time>
      </trkpt>
      <trkpt lat="59.9759456" lon="17.7412083">
        <ele>35.2255</ele>
        <time>2012-03-03T18:30:37Z</time>
      </trkpt>
      <trkpt lat="59.9759" lon="17.7412906">
        <ele>35.2255</ele>
        <time>2012-03-03T18:30:40Z</time>
      </trkpt>
      <trkpt lat="59.9758817" lon="17.7413714">
        <ele>35.2255</ele>
        <time>2012-03-03T18:30:43Z</time>
      </trkpt>
      <trkpt lat="59.9758604" lon="17.7414818">
        <ele>34.7449</ele>
        <time>2012-03-03T18:30:48Z</time>
      </trkpt>
      <trkpt lat="59.9758209" lon="17.7416377">
        <ele>35.2255</ele>
        <time>2012-03-03T18:30:54Z</time>
      </trkpt>
      <trkpt lat="59.9757938" lon="17.7417515">
        <ele>35.2255</ele>
        <time>2012-03-03T18:30:59Z</time>
      </trkpt>
      <trkpt lat="59.97577" lon="17.7418579">
        <ele>35.7061</ele>
        <time>2012-03-03T18:31:03Z</time>
      </trkpt>
      <trkpt lat="59.9757061" lon="17.7420759">
        <ele>35.2255</ele>
        <time>2012-03-03T18:31:11Z</time>
      </trkpt>
      <trkpt lat="59.9756383" lon="17.7422902">
        <ele>35.2255</ele>
        <time>2012-03-03T18:31:19Z</time>
      </trkpt>
      <trkpt lat="59.9755783" lon="17.7425111">
        <ele>34.7449</ele>
        <time>2012-03-03T18:31:27Z</time>
      </trkpt>
      <trkpt lat="59.9755145" lon="17.7427284">
        <ele>33.7834</ele>
        <time>2012-03-03T18:31:35Z</time>
      </trkpt>
      <trkpt lat="59.9754666" lon="17.7429011">
        <ele>32.8223</ele>
        <time>2012-03-03T18:31:41Z</time>
      </trkpt>
      <trkpt lat="59.975438" lon="17.743061">
        <ele>31.8607</ele>
        <time>2012-03-03T18:31:47Z</time>
      </trkpt>
      <trkpt lat="59.9753944" lon="17.7432293">
        <ele>33.3029</ele>
        <time>2012-03-03T18:31:53Z</time>
      </trkpt>
      <trkpt lat="59.975353" lon="17.7434476">
        <ele>33.7834</ele>
        <time>2012-03-03T18:32:01Z</time>
      </trkpt>
      <trkpt lat="59.9753073" lon="17.7436974">
        <ele>33.7834</ele>
        <time>2012-03-03T18:32:10Z</time>
      </trkpt>
      <trkpt lat="59.9752695" lon="17.7438667">
        <ele>34.2642</ele>
        <time>2012-03-03T18:32:16Z</time>
      </trkpt>
      <trkpt lat="59.9752422" lon="17.7440666">
        <ele>34.2642</ele>
        <time>2012-03-03T18:32:23Z</time>
      </trkpt>
      <trkpt lat="59.9752117" lon="17.7442811">
        <ele>33.7834</ele>
        <time>2012-03-03T18:32:31Z</time>
      </trkpt>
      <trkpt lat="59.9751681" lon="17.7445">
        <ele>34.2642</ele>
        <time>2012-03-03T18:32:39Z</time>
      </trkpt>
      <trkpt lat="59.9751541" lon="17.7445542">
        <ele>34.2642</ele>
        <time>2012-03-03T18:32:41Z</time>
      </trkpt>
      <trkpt lat="59.9751247" lon="17.7446946">
        <ele>33.7834</ele>
        <time>2012-03-03T18:32:47Z</time>
      </trkpt>
      <trkpt lat="59.9750646" lon="17.7449027">
        <ele>33.3029</ele>
        <time>2012-03-03T18:32:55Z</time>
      </trkpt>
      <trkpt lat="59.9749826" lon="17.7451302">
        <ele>34.7449</ele>
        <time>2012-03-03T18:33:04Z</time>
      </trkpt>
      <trkpt lat="59.9749114" lon="17.7453233">
        <ele>35.7061</ele>
        <time>2012-03-03T18:33:12Z</time>
      </trkpt>
      <trkpt lat="59.9748613" lon="17.7454699">
        <ele>35.2255</ele>
        <time>2012-03-03T18:33:18Z</time>
      </trkpt>
      <trkpt lat="59.9748531" lon="17.7454917">
        <ele>35.2255</ele>
        <time>2012-03-03T18:33:19Z</time>
      </trkpt>
      <trkpt lat="59.9747977" lon="17.745601">
        <ele>35.2255</ele>
        <time>2012-03-03T18:33:24Z</time>
      </trkpt>
      <trkpt lat="59.9747526" lon="17.7456279">
        <ele>34.7449</ele>
        <time>2012-03-03T18:33:26Z</time>
      </trkpt>
      <trkpt lat="59.9746874" lon="17.7457641">
        <ele>34.7449</ele>
        <time>2012-03-03T18:33:32Z</time>
      </trkpt>
      <trkpt lat="59.9746235" lon="17.745903">
        <ele>33.3029</ele>
        <time>2012-03-03T18:33:38Z</time>
      </trkpt>
      <trkpt lat="59.9745801" lon="17.7460066">
        <ele>33.3029</ele>
        <time>2012-03-03T18:33:43Z</time>
      </trkpt>
      <trkpt lat="59.9745491" lon="17.746089">
        <ele>33.3029</ele>
        <time>2012-03-03T18:33:47Z</time>
      </trkpt>
      <trkpt lat="59.9744914" lon="17.7461825">
        <ele>32.8223</ele>
        <time>2012-03-03T18:33:53Z</time>
      </trkpt>
      <trkpt lat="59.9743896" lon="17.7463366">
        <ele>34.7449</ele>
        <time>2012-03-03T18:34:02Z</time>
      </trkpt>
      <trkpt lat="59.9743046" lon="17.7464531">
        <ele>35.2255</ele>
        <time>2012-03-03T18:34:09Z</time>
      </trkpt>
      <trkpt lat="59.9742104" lon="17.7465643">
        <ele>34.7449</ele>
        <time>2012-03-03T18:34:17Z</time>
      </trkpt>
      <trkpt lat="59.9741371" lon="17.7466391">
        <ele>34.7449</ele>
        <time>2012-03-03T18:34:22Z</time>
      </trkpt>
      <trkpt lat="59.9740709" lon="17.7467307">
        <ele>34.7449</ele>
        <time>2012-03-03T18:34:27Z</time>
      </trkpt>
      <trkpt lat="59.9740037" lon="17.7468635">
        <ele>34.2642</ele>
        <time>2012-03-03T18:34:33Z</time>
      </trkpt>
      <trkpt lat="59.9739366" lon="17.7469169">
        <ele>34.2642</ele>
        <time>2012-03-03T18:34:38Z</time>
      </trkpt>
      <trkpt lat="59.9738799" lon="17.7470043">
        <ele>33.7834</ele>
        <time>2012-03-03T18:34:43Z</time>
      </trkpt>
      <trkpt lat="59.9737963" lon="17.7471089">
        <ele>34.7449</ele>
        <time>2012-03-03T18:34:51Z</time>
      </trkpt>
      <trkpt lat="59.9737537" lon="17.7471701">
        <ele>34.2642</ele>
        <time>2012-03-03T18:34:55Z</time>
      </trkpt>
      <trkpt lat="59.9737" lon="17.7472146">
        <ele>33.3029</ele>
        <time>2012-03-03T18:34:59Z</time>
      </trkpt>
      <trkpt lat="59.9736195" lon="17.7473214">
        <ele>33.3029</ele>
        <time>2012-03-03T18:35:05Z</time>
      </trkpt>
      <trkpt lat="59.9734903" lon="17.7474705">
        <ele>33.7834</ele>
        <time>2012-03-03T18:35:14Z</time>
      </trkpt>
      <trkpt lat="59.9734037" lon="17.7476062">
        <ele>34.7449</ele>
        <time>2012-03-03T18:35:21Z</time>
      </trkpt>
      <trkpt lat="59.9733248" lon="17.7476647">
        <ele>34.2642</ele>
        <time>2012-03-03T18:35:26Z</time>
      </trkpt>
      <trkpt lat="59.9732463" lon="17.7477513">
        <ele>34.7449</ele>
        <time>2012-03-03T18:35:32Z</time>
      </trkpt>
      <trkpt lat="59.9731619" lon="17.7478823">
        <ele>36.1868</ele>
        <time>2012-03-03T18:35:39Z</time>
      </trkpt>
      <trkpt lat="59.9730996" lon="17.7479539">
        <ele>36.1868</ele>
        <time>2012-03-03T18:35:44Z</time>
      </trkpt>
      <trkpt lat="59.9729943" lon="17.7480714">
        <ele>37.6287</ele>
        <time>2012-03-03T18:35:53Z</time>
      </trkpt>
      <trkpt lat="59.9729674" lon="17.7481243">
        <ele>38.1094</ele>
        <time>2012-03-03T18:35:56Z</time>
      </trkpt>
      <trkpt lat="59.972907" lon="17.748233">
        <ele>38.5901</ele>
        <time>2012-03-03T18:36:01Z</time>
      </trkpt>
      <trkpt lat="59.9728902" lon="17.748266">
        <ele>39.0707</ele>
        <time>2012-03-03T18:36:02Z</time>
      </trkpt>
      <trkpt lat="59.9728131" lon="17.748418">
        <ele>39.5513</ele>
        <time>2012-03-03T18:36:09Z</time>
      </trkpt>
      <trkpt lat="59.9727453" lon="17.7485676">
        <ele>39.0707</ele>
        <time>2012-03-03T18:36:16Z</time>
      </trkpt>
      <trkpt lat="59.9726781" lon="17.7487116">
        <ele>37.6287</ele>
        <time>2012-03-03T18:36:23Z</time>
      </trkpt>
      <trkpt lat="59.9726214" lon="17.748838">
        <ele>37.1481</ele>
        <time>2012-03-03T18:36:30Z</time>
      </trkpt>
      <trkpt lat="59.9726154" lon="17.748854">
        <ele>37.1481</ele>
        <time>2012-03-03T18:36:31Z</time>
      </trkpt>
      <trkpt lat="59.9725693" lon="17.7489332">
        <ele>36.1868</ele>
        <time>2012-03-03T18:36:35Z</time>
      </trkpt>
      <trkpt lat="59.9725143" lon="17.7490445">
        <ele>35.2255</ele>
        <time>2012-03-03T18:36:41Z</time>
      </trkpt>
      <trkpt lat="59.9724867" lon="17.7491259">
        <ele>35.7061</ele>
        <time>2012-03-03T18:36:45Z</time>
      </trkpt>
      <trkpt lat="59.972432" lon="17.7492804">
        <ele>36.6675</ele>
        <time>2012-03-03T18:36:52Z</time>
      </trkpt>
      <trkpt lat="59.972372" lon="17.7493745">
        <ele>35.7061</ele>
        <time>2012-03-03T18:36:57Z</time>
      </trkpt>
      <trkpt lat="59.9723118" lon="17.7494416">
        <ele>36.1868</ele>
        <time>2012-03-03T18:37:01Z</time>
      </trkpt>
      <trkpt lat="59.9722587" lon="17.7495472">
        <ele>36.1868</ele>
        <time>2012-03-03T18:37:06Z</time>
      </trkpt>
      <trkpt lat="59.9722044" lon="17.7497429">
        <ele>36.1868</ele>
        <time>2012-03-03T18:37:14Z</time>
      </trkpt>
      <trkpt lat="59.972175" lon="17.7498407">
        <ele>36.6675</ele>
        <time>2012-03-03T18:37:18Z</time>
      </trkpt>
      <trkpt lat="59.9721309" lon="17.7499886">
        <ele>36.1868</ele>
        <time>2012-03-03T18:37:25Z</time>
      </trkpt>
      <trkpt lat="59.9720722" lon="17.75009">
        <ele>35.2255</ele>
        <time>2012-03-03T18:37:29Z</time>
      </trkpt>
      <trkpt lat="59.9720181" lon="17.7502004">
        <ele>33.7834</ele>
        <time>2012-03-03T18:37:34Z</time>
      </trkpt>
      <trkpt lat="59.9719403" lon="17.7503672">
        <ele>34.7449</ele>
        <time>2012-03-03T18:37:40Z</time>
      </trkpt>
      <trkpt lat="59.9718868" lon="17.7504397">
        <ele>33.7834</ele>
        <time>2012-03-03T18:37:45Z</time>
      </trkpt>
      <trkpt lat="59.9717999" lon="17.7505709">
        <ele>33.3029</ele>
        <time>2012-03-03T18:37:53Z</time>
      </trkpt>
      <trkpt lat="59.9717575" lon="17.7506499">
        <ele>32.8223</ele>
        <time>2012-03-03T18:37:57Z</time>
      </trkpt>
      <trkpt lat="59.9717373" lon="17.7506143">
        <ele>32.3416</ele>
        <time>2012-03-03T18:38:01Z</time>
      </trkpt>
      <trkpt lat="59.9717659" lon="17.7505717">
        <ele>31.8607</ele>
        <time>2012-03-03T18:38:03Z</time>
      </trkpt>
      <trkpt lat="59.9718477" lon="17.7504439">
        <ele>30.4188</ele>
        <time>2012-03-03T18:38:10Z</time>
      </trkpt>
      <trkpt lat="59.9719252" lon="17.7503346">
        <ele>28.4962</ele>
        <time>2012-03-03T18:38:17Z</time>
      </trkpt>
      <trkpt lat="59.9719938" lon="17.7501655">
        <ele>27.5349</ele>
        <time>2012-03-03T18:38:25Z</time>
      </trkpt>
      <trkpt lat="59.9720404" lon="17.7500681">
        <ele>27.5349</ele>
        <time>2012-03-03T18:38:30Z</time>
      </trkpt>
      <trkpt lat="59.972104" lon="17.7499166">
        <ele>26.5736</ele>
        <time>2012-03-03T18:38:37Z</time>
      </trkpt>
      <trkpt lat="59.9721758" lon="17.7497388">
        <ele>26.5736</ele>
        <time>2012-03-03T18:38:45Z</time>
      </trkpt>
      <trkpt lat="59.9722252" lon="17.749602">
        <ele>26.0929</ele>
        <time>2012-03-03T18:38:51Z</time>
      </trkpt>
      <trkpt lat="59.9723007" lon="17.7494282">
        <ele>29.4575</ele>
        <time>2012-03-03T18:38:59Z</time>
      </trkpt>
      <trkpt lat="59.972363" lon="17.7492887">
        <ele>30.8995</ele>
        <time>2012-03-03T18:39:06Z</time>
      </trkpt>
      <trkpt lat="59.9723998" lon="17.7491668">
        <ele>31.3801</ele>
        <time>2012-03-03T18:39:11Z</time>
      </trkpt>
      <trkpt lat="59.9724439" lon="17.7489881">
        <ele>31.3801</ele>
        <time>2012-03-03T18:39:18Z</time>
      </trkpt>
      <trkpt lat="59.9724973" lon="17.7488584">
        <ele>31.8607</ele>
        <time>2012-03-03T18:39:24Z</time>
      </trkpt>
      <trkpt lat="59.9725405" lon="17.7487671">
        <ele>32.8223</ele>
        <time>2012-03-03T18:39:28Z</time>
      </trkpt>
      <trkpt lat="59.9725586" lon="17.7487183">
        <ele>32.8223</ele>
        <time>2012-03-03T18:39:30Z</time>
      </trkpt>
      <trkpt lat="59.9725851" lon="17.7486006">
        <ele>33.7834</ele>
        <time>2012-03-03T18:39:34Z</time>
      </trkpt>
      <trkpt lat="59.9726107" lon="17.74852">
        <ele>34.2642</ele>
        <time>2012-03-03T18:39:37Z</time>
      </trkpt>
      <trkpt lat="59.9726736" lon="17.7483939">
        <ele>35.2255</ele>
        <time>2012-03-03T18:39:43Z</time>
      </trkpt>
      <trkpt lat="59.9727059" lon="17.7483284">
        <ele>35.2255</ele>
        <time>2012-03-03T18:39:46Z</time>
      </trkpt>
      <trkpt lat="59.9727671" lon="17.7481611">
        <ele>35.2255</ele>
        <time>2012-03-03T18:39:53Z</time>
      </trkpt>
      <trkpt lat="59.9728462" lon="17.7480373">
        <ele>36.6675</ele>
        <time>2012-03-03T18:40:00Z</time>
      </trkpt>
      <trkpt lat="59.9729611" lon="17.7479184">
        <ele>34.7449</ele>
        <time>2012-03-03T18:40:08Z</time>
      </trkpt>
      <trkpt lat="59.9730998" lon="17.7477834">
        <ele>33.3029</ele>
        <time>2012-03-03T18:40:18Z</time>
      </trkpt>
      <trkpt lat="59.9732229" lon="17.7476625">
        <ele>29.9381</ele>
        <time>2012-03-03T18:40:27Z</time>
      </trkpt>
      <trkpt lat="59.9733092" lon="17.7475801">
        <ele>28.9769</ele>
        <time>2012-03-03T18:40:33Z</time>
      </trkpt>
      <trkpt lat="59.9733898" lon="17.7475052">
        <ele>28.0155</ele>
        <time>2012-03-03T18:40:39Z</time>
      </trkpt>
      <trkpt lat="59.9734701" lon="17.7474416">
        <ele>26.0929</ele>
        <time>2012-03-03T18:40:45Z</time>
      </trkpt>
      <trkpt lat="59.9735651" lon="17.747361">
        <ele>26.0929</ele>
        <time>2012-03-03T18:40:52Z</time>
      </trkpt>
      <trkpt lat="59.9736399" lon="17.7472684">
        <ele>26.5736</ele>
        <time>2012-03-03T18:40:58Z</time>
      </trkpt>
      <trkpt lat="59.9737532" lon="17.7471579">
        <ele>27.5349</ele>
        <time>2012-03-03T18:41:07Z</time>
      </trkpt>
      <trkpt lat="59.973871" lon="17.7470307">
        <ele>28.4962</ele>
        <time>2012-03-03T18:41:16Z</time>
      </trkpt>
      <trkpt lat="59.9739761" lon="17.7468937">
        <ele>28.4962</ele>
        <time>2012-03-03T18:41:25Z</time>
      </trkpt>
      <trkpt lat="59.9740835" lon="17.746742">
        <ele>27.0543</ele>
        <time>2012-03-03T18:41:34Z</time>
      </trkpt>
      <trkpt lat="59.9741658" lon="17.7466213">
        <ele>26.0929</ele>
        <time>2012-03-03T18:41:41Z</time>
      </trkpt>
      <trkpt lat="59.9741845" lon="17.7465781">
        <ele>25.6123</ele>
        <time>2012-03-03T18:41:43Z</time>
      </trkpt>
      <trkpt lat="59.9742156" lon="17.7465263">
        <ele>25.1317</ele>
        <time>2012-03-03T18:41:46Z</time>
      </trkpt>
      <trkpt lat="59.974295" lon="17.7464251">
        <ele>27.5349</ele>
        <time>2012-03-03T18:41:52Z</time>
      </trkpt>
      <trkpt lat="59.9743995" lon="17.7463174">
        <ele>28.0155</ele>
        <time>2012-03-03T18:41:59Z</time>
      </trkpt>
      <trkpt lat="59.9744945" lon="17.7462045">
        <ele>28.9769</ele>
        <time>2012-03-03T18:42:06Z</time>
      </trkpt>
      <trkpt lat="59.9745656" lon="17.7461013">
        <ele>30.8995</ele>
        <time>2012-03-03T18:42:12Z</time>
      </trkpt>
      <trkpt lat="59.9746654" lon="17.7459479">
        <ele>33.7834</ele>
        <time>2012-03-03T18:42:20Z</time>
      </trkpt>
      <trkpt lat="59.9746939" lon="17.745849">
        <ele>35.2255</ele>
        <time>2012-03-03T18:42:24Z</time>
      </trkpt>
      <trkpt lat="59.9747395" lon="17.7457669">
        <ele>35.7061</ele>
        <time>2012-03-03T18:42:28Z</time>
      </trkpt>
      <trkpt lat="59.9747849" lon="17.7456481">
        <ele>36.1868</ele>
        <time>2012-03-03T18:42:33Z</time>
      </trkpt>
      <trkpt lat="59.9748453" lon="17.7454478">
        <ele>32.8223</ele>
        <time>2012-03-03T18:42:41Z</time>
      </trkpt>
      <trkpt lat="59.9748539" lon="17.7454243">
        <ele>32.3416</ele>
        <time>2012-03-03T18:42:42Z</time>
      </trkpt>
      <trkpt lat="59.9748894" lon="17.7453332">
        <ele>30.8995</ele>
        <time>2012-03-03T18:42:46Z</time>
      </trkpt>
      <trkpt lat="59.974963" lon="17.7451286">
        <ele>29.9381</ele>
        <time>2012-03-03T18:42:55Z</time>
      </trkpt>
      <trkpt lat="59.9750173" lon="17.7449782">
        <ele>30.4188</ele>
        <time>2012-03-03T18:43:01Z</time>
      </trkpt>
      <trkpt lat="59.9750825" lon="17.7448048">
        <ele>31.8607</ele>
        <time>2012-03-03T18:43:08Z</time>
      </trkpt>
      <trkpt lat="59.9751342" lon="17.7446177">
        <ele>33.7834</ele>
        <time>2012-03-03T18:43:15Z</time>
      </trkpt>
      <trkpt lat="59.9752084" lon="17.7443686">
        <ele>35.2255</ele>
        <time>2012-03-03T18:43:25Z</time>
      </trkpt>
      <trkpt lat="59.9752629" lon="17.7441315">
        <ele>36.6675</ele>
        <time>2012-03-03T18:43:34Z</time>
      </trkpt>
      <trkpt lat="59.9752979" lon="17.7439424">
        <ele>37.1481</ele>
        <time>2012-03-03T18:43:41Z</time>
      </trkpt>
      <trkpt lat="59.9753297" lon="17.7438163">
        <ele>36.6675</ele>
        <time>2012-03-03T18:43:46Z</time>
      </trkpt>
      <trkpt lat="59.9753701" lon="17.7436549">
        <ele>38.5901</ele>
        <time>2012-03-03T18:43:53Z</time>
      </trkpt>
      <trkpt lat="59.9754043" lon="17.7435391">
        <ele>39.5513</ele>
        <time>2012-03-03T18:43:58Z</time>
      </trkpt>
      <trkpt lat="59.975451" lon="17.7433367">
        <ele>39.5513</ele>
        <time>2012-03-03T18:44:06Z</time>
      </trkpt>
      <trkpt lat="59.9754841" lon="17.7431648">
        <ele>38.1094</ele>
        <time>2012-03-03T18:44:13Z</time>
      </trkpt>
      <trkpt lat="59.9754959" lon="17.7430884">
        <ele>37.6287</ele>
        <time>2012-03-03T18:44:16Z</time>
      </trkpt>
      <trkpt lat="59.9755477" lon="17.7429405">
        <ele>38.5901</ele>
        <time>2012-03-03T18:44:23Z</time>
      </trkpt>
      <trkpt lat="59.9755741" lon="17.7428727">
        <ele>39.5513</ele>
        <time>2012-03-03T18:44:26Z</time>
      </trkpt>
      <trkpt lat="59.9756063" lon="17.7427756">
        <ele>40.0321</ele>
        <time>2012-03-03T18:44:30Z</time>
      </trkpt>
      <trkpt lat="59.9756182" lon="17.7426241">
        <ele>38.5901</ele>
        <time>2012-03-03T18:44:35Z</time>
      </trkpt>
      <trkpt lat="59.9756494" lon="17.7424943">
        <ele>40.0321</ele>
        <time>2012-03-03T18:44:40Z</time>
      </trkpt>
      <trkpt lat="59.975689" lon="17.7424203">
        <ele>40.5128</ele>
        <time>2012-03-03T18:44:43Z</time>
      </trkpt>
      <trkpt lat="59.9757196" lon="17.742322">
        <ele>39.5513</ele>
        <time>2012-03-03T18:44:47Z</time>
      </trkpt>
      <trkpt lat="59.9757378" lon="17.7421806">
        <ele>40.0321</ele>
        <time>2012-03-03T18:44:52Z</time>
      </trkpt>
      <trkpt lat="59.9757674" lon="17.7420659">
        <ele>40.0321</ele>
        <time>2012-03-03T18:44:56Z</time>
      </trkpt>
      <trkpt lat="59.9758068" lon="17.7419048">
        <ele>39.0707</ele>
        <time>2012-03-03T18:45:02Z</time>
      </trkpt>
      <trkpt lat="59.9758413" lon="17.7417604">
        <ele>37.6287</ele>
        <time>2012-03-03T18:45:07Z</time>
      </trkpt>
      <trkpt lat="59.9758611" lon="17.7416626">
        <ele>37.1481</ele>
        <time>2012-03-03T18:45:11Z</time>
      </trkpt>
      <trkpt lat="59.9758798" lon="17.7415667">
        <ele>37.1481</ele>
        <time>2012-03-03T18:45:15Z</time>
      </trkpt>
      <trkpt lat="59.9758947" lon="17.7414585">
        <ele>37.1481</ele>
        <time>2012-03-03T18:45:19Z</time>
      </trkpt>
      <trkpt lat="59.9759378" lon="17.7412674">
        <ele>36.1868</ele>
        <time>2012-03-03T18:45:26Z</time>
      </trkpt>
      <trkpt lat="59.9759471" lon="17.741116">
        <ele>33.3029</ele>
        <time>2012-03-03T18:45:31Z</time>
      </trkpt>
      <trkpt lat="59.975974" lon="17.7410166">
        <ele>32.8223</ele>
        <time>2012-03-03T18:45:36Z</time>
      </trkpt>
      <trkpt lat="59.9759906" lon="17.740958">
        <ele>32.3416</ele>
        <time>2012-03-03T18:45:39Z</time>
      </trkpt>
      <trkpt lat="59.9760445" lon="17.7407522">
        <ele>31.8607</ele>
        <time>2012-03-03T18:45:47Z</time>
      </trkpt>
      <trkpt lat="59.9760908" lon="17.7405975">
        <ele>31.3801</ele>
        <time>2012-03-03T18:45:53Z</time>
      </trkpt>
      <trkpt lat="59.9761032" lon="17.7405078">
        <ele>30.8995</ele>
        <time>2012-03-03T18:45:56Z</time>
      </trkpt>
      <trkpt lat="59.9761166" lon="17.7404502">
        <ele>29.9381</ele>
        <time>2012-03-03T18:45:58Z</time>
      </trkpt>
      <trkpt lat="59.9761544" lon="17.7403157">
        <ele>28.0155</ele>
        <time>2012-03-03T18:46:04Z</time>
      </trkpt>
      <trkpt lat="59.9761951" lon="17.7401795">
        <ele>27.5349</ele>
        <time>2012-03-03T18:46:10Z</time>
      </trkpt>
      <trkpt lat="59.9762081" lon="17.7400707">
        <ele>25.6123</ele>
        <time>2012-03-03T18:46:14Z</time>
      </trkpt>
      <trkpt lat="59.9762212" lon="17.7399913">
        <ele>24.1703</ele>
        <time>2012-03-03T18:46:17Z</time>
      </trkpt>
      <trkpt lat="59.9762756" lon="17.7398676">
        <ele>23.6896</ele>
        <time>2012-03-03T18:46:23Z</time>
      </trkpt>
      <trkpt lat="59.97629" lon="17.7398232">
        <ele>23.6896</ele>
        <time>2012-03-03T18:46:25Z</time>
      </trkpt>
      <trkpt lat="59.9763693" lon="17.7396956">
        <ele>24.651</ele>
        <time>2012-03-03T18:46:32Z</time>
      </trkpt>
      <trkpt lat="59.9764406" lon="17.7395491">
        <ele>24.651</ele>
        <time>2012-03-03T18:46:41Z</time>
      </trkpt>
      <trkpt lat="59.9765025" lon="17.7394925">
        <ele>25.6123</ele>
        <time>2012-03-03T18:46:46Z</time>
      </trkpt>
      <trkpt lat="59.9766015" lon="17.7394538">
        <ele>26.5736</ele>
        <time>2012-03-03T18:46:52Z</time>
      </trkpt>
      <trkpt lat="59.9767165" lon="17.7393942">
        <ele>27.5349</ele>
        <time>2012-03-03T18:47:00Z</time>
      </trkpt>
      <trkpt lat="59.9767988" lon="17.7393542">
        <ele>27.0543</ele>
        <time>2012-03-03T18:47:06Z</time>
      </trkpt>
      <trkpt lat="59.9768647" lon="17.739316">
        <ele>28.9769</ele>
        <time>2012-03-03T18:47:11Z</time>
      </trkpt>
      <trkpt lat="59.976898" lon="17.7392957">
        <ele>27.5349</ele>
        <time>2012-03-03T18:47:15Z</time>
      </trkpt>
      <trkpt lat="59.9769919" lon="17.7392631">
        <ele>27.5349</ele>
        <time>2012-03-03T18:47:23Z</time>
      </trkpt>
      <trkpt lat="59.9770576" lon="17.7392238">
        <ele>27.0543</ele>
        <time>2012-03-03T18:47:28Z</time>
      </trkpt>
      <trkpt lat="59.977165" lon="17.7391782">
        <ele>28.9769</ele>
        <time>2012-03-03T18:47:35Z</time>
      </trkpt>
      <trkpt lat="59.9771961" lon="17.7391683">
        <ele>29.4575</ele>
        <time>2012-03-03T18:47:37Z</time>
      </trkpt>
      <trkpt lat="59.9772827" lon="17.7391145">
        <ele>28.9769</ele>
        <time>2012-03-03T18:47:44Z</time>
      </trkpt>
      <trkpt lat="59.9773562" lon="17.7390638">
        <ele>29.9381</ele>
        <time>2012-03-03T18:47:50Z</time>
      </trkpt>
      <trkpt lat="59.9774327" lon="17.739031">
        <ele>27.0543</ele>
        <time>2012-03-03T18:47:57Z</time>
      </trkpt>
      <trkpt lat="59.9775079" lon="17.7390041">
        <ele>27.0543</ele>
        <time>2012-03-03T18:48:02Z</time>
      </trkpt>
      <trkpt lat="59.9776258" lon="17.7389891">
        <ele>28.9769</ele>
        <time>2012-03-03T18:48:10Z</time>
      </trkpt>
      <trkpt lat="59.9777296" lon="17.7390036">
        <ele>31.8607</ele>
        <time>2012-03-03T18:48:17Z</time>
      </trkpt>
      <trkpt lat="59.9778291" lon="17.7390368">
        <ele>33.3029</ele>
        <time>2012-03-03T18:48:24Z</time>
      </trkpt>
      <trkpt lat="59.9779452" lon="17.7390739">
        <ele>35.2255</ele>
        <time>2012-03-03T18:48:31Z</time>
      </trkpt>
      <trkpt lat="59.9780561" lon="17.7391114">
        <ele>36.6675</ele>
        <time>2012-03-03T18:48:38Z</time>
      </trkpt>
      <trkpt lat="59.9781293" lon="17.739142">
        <ele>36.6675</ele>
        <time>2012-03-03T18:48:43Z</time>
      </trkpt>
      <trkpt lat="59.9782311" lon="17.7391917">
        <ele>37.1481</ele>
        <time>2012-03-03T18:48:50Z</time>
      </trkpt>
      <trkpt lat="59.9783345" lon="17.7392246">
        <ele>37.6287</ele>
        <time>2012-03-03T18:48:57Z</time>
      </trkpt>
      <trkpt lat="59.9784252" lon="17.73928">
        <ele>37.6287</ele>
        <time>2012-03-03T18:49:04Z</time>
      </trkpt>
      <trkpt lat="59.9785041" lon="17.7393282">
        <ele>36.6675</ele>
        <time>2012-03-03T18:49:10Z</time>
      </trkpt>
      <trkpt lat="59.9786145" lon="17.7393524">
        <ele>37.1481</ele>
        <time>2012-03-03T18:49:17Z</time>
      </trkpt>
      <trkpt lat="59.9786878" lon="17.7393683">
        <ele>37.6287</ele>
        <time>2012-03-03T18:49:21Z</time>
      </trkpt>
      <trkpt lat="59.9788096" lon="17.7393637">
        <ele>38.1094</ele>
        <time>2012-03-03T18:49:28Z</time>
      </trkpt>
      <trkpt lat="59.9788789" lon="17.7393534">
        <ele>36.1868</ele>
        <time>2012-03-03T18:49:33Z</time>
      </trkpt>
      <trkpt lat="59.9789884" lon="17.7393315">
        <ele>34.7449</ele>
        <time>2012-03-03T18:49:40Z</time>
      </trkpt>
      <trkpt lat="59.9790711" lon="17.7392894">
        <ele>35.7061</ele>
        <time>2012-03-03T18:49:46Z</time>
      </trkpt>
      <trkpt lat="59.9791512" lon="17.7392415">
        <ele>35.7061</ele>
        <time>2012-03-03T18:49:51Z</time>
      </trkpt>
      <trkpt lat="59.9792287" lon="17.7391822">
        <ele>37.1481</ele>
        <time>2012-03-03T18:49:56Z</time>
      </trkpt>
      <trkpt lat="59.9793007" lon="17.739149">
        <ele>38.5901</ele>
        <time>2012-03-03T18:50:01Z</time>
      </trkpt>
      <trkpt lat="59.9793826" lon="17.7390885">
        <ele>38.1094</ele>
        <time>2012-03-03T18:50:07Z</time>
      </trkpt>
      <trkpt lat="59.9794582" lon="17.7390011">
        <ele>38.1094</ele>
        <time>2012-03-03T18:50:13Z</time>
      </trkpt>
      <trkpt lat="59.9795044" lon="17.7389555">
        <ele>37.6287</ele>
        <time>2012-03-03T18:50:17Z</time>
      </trkpt>
      <trkpt lat="59.9795624" lon="17.7388998">
        <ele>37.1481</ele>
        <time>2012-03-03T18:50:22Z</time>
      </trkpt>
      <trkpt lat="59.9796582" lon="17.7388359">
        <ele>38.1094</ele>
        <time>2012-03-03T18:50:30Z</time>
      </trkpt>
      <trkpt lat="59.9797622" lon="17.7387934">
        <ele>36.1868</ele>
        <time>2012-03-03T18:50:38Z</time>
      </trkpt>
      <trkpt lat="59.9797986" lon="17.7387695">
        <ele>35.2255</ele>
        <time>2012-03-03T18:50:41Z</time>
      </trkpt>
      <trkpt lat="59.979814" lon="17.7387499">
        <ele>34.7449</ele>
        <time>2012-03-03T18:50:43Z</time>
      </trkpt>
      <trkpt lat="59.9798636" lon="17.7387414">
        <ele>33.3029</ele>
        <time>2012-03-03T18:50:47Z</time>
      </trkpt>
      <trkpt lat="59.9799595" lon="17.7387316">
        <ele>36.6675</ele>
        <time>2012-03-03T18:50:53Z</time>
      </trkpt>
      <trkpt lat="59.9800467" lon="17.7387368">
        <ele>38.1094</ele>
        <time>2012-03-03T18:50:59Z</time>
      </trkpt>
      <trkpt lat="59.9801627" lon="17.7387685">
        <ele>41.474</ele>
        <time>2012-03-03T18:51:06Z</time>
      </trkpt>
      <trkpt lat="59.9802015" lon="17.7387755">
        <ele>42.4354</ele>
        <time>2012-03-03T18:51:09Z</time>
      </trkpt>
      <trkpt lat="59.9802995" lon="17.7387851">
        <ele>46.2806</ele>
        <time>2012-03-03T18:51:15Z</time>
      </trkpt>
      <trkpt lat="59.9803677" lon="17.7387791">
        <ele>45.7999</ele>
        <time>2012-03-03T18:51:20Z</time>
      </trkpt>
      <trkpt lat="59.980376" lon="17.7387725">
        <ele>45.3192</ele>
        <time>2012-03-03T18:51:21Z</time>
      </trkpt>
      <trkpt lat="59.9804132" lon="17.738769">
        <ele>43.8773</ele>
        <time>2012-03-03T18:51:24Z</time>
      </trkpt>
      <trkpt lat="59.9805176" lon="17.7387497">
        <ele>41.9547</ele>
        <time>2012-03-03T18:51:31Z</time>
      </trkpt>
      <trkpt lat="59.980589" lon="17.7387227">
        <ele>41.474</ele>
        <time>2012-03-03T18:51:36Z</time>
      </trkpt>
      <trkpt lat="59.9806722" lon="17.7387103">
        <ele>40.9934</ele>
        <time>2012-03-03T18:51:42Z</time>
      </trkpt>
      <trkpt lat="59.9807822" lon="17.7386865">
        <ele>39.5513</ele>
        <time>2012-03-03T18:51:49Z</time>
      </trkpt>
      <trkpt lat="59.9808382" lon="17.7386674">
        <ele>41.474</ele>
        <time>2012-03-03T18:51:55Z</time>
      </trkpt>
      <trkpt lat="59.9809754" lon="17.7386263">
        <ele>46.7612</ele>
        <time>2012-03-03T18:52:03Z</time>
      </trkpt>
      <trkpt lat="59.9811003" lon="17.7385597">
        <ele>56.3745</ele>
        <time>2012-03-03T18:52:09Z</time>
      </trkpt>
      <trkpt lat="59.9811444" lon="17.7385275">
        <ele>59.2584</ele>
        <time>2012-03-03T18:52:12Z</time>
      </trkpt>
      <trkpt lat="59.9812366" lon="17.7385302">
        <ele>57.8165</ele>
        <time>2012-03-03T18:52:19Z</time>
      </trkpt>
      <trkpt lat="59.9812708" lon="17.7385194">
        <ele>55.4131</ele>
        <time>2012-03-03T18:52:22Z</time>
      </trkpt>
      <trkpt lat="59.9813755" lon="17.738489">
        <ele>52.5292</ele>
        <time>2012-03-03T18:52:29Z</time>
      </trkpt>
      <trkpt lat="59.9814567" lon="17.7384675">
        <ele>51.0872</ele>
        <time>2012-03-03T18:52:35Z</time>
      </trkpt>
      <trkpt lat="59.9815105" lon="17.7384453">
        <ele>51.5679</ele>
        <time>2012-03-03T18:52:38Z</time>
      </trkpt>
      <trkpt lat="59.9815984" lon="17.7384279">
        <ele>49.6453</ele>
        <time>2012-03-03T18:52:45Z</time>
      </trkpt>
      <trkpt lat="59.9816013" lon="17.738482">
        <ele>49.1646</ele>
        <time>2012-03-03T18:52:49Z</time>
      </trkpt>
      <trkpt lat="59.9814848" lon="17.7384949">
        <ele>50.126</ele>
        <time>2012-03-03T18:52:55Z</time>
      </trkpt>
      <trkpt lat="59.9814169" lon="17.7385021">
        <ele>49.6453</ele>
        <time>2012-03-03T18:53:00Z</time>
      </trkpt>
      <trkpt lat="59.9814085" lon="17.7385083">
        <ele>50.126</ele>
        <time>2012-03-03T18:53:01Z</time>
      </trkpt>
      <trkpt lat="59.981379" lon="17.7385266">
        <ele>49.1646</ele>
        <time>2012-03-03T18:53:03Z</time>
      </trkpt>
      <trkpt lat="59.9812881" lon="17.7385502">
        <ele>47.2418</ele>
        <time>2012-03-03T18:53:09Z</time>
      </trkpt>
      <trkpt lat="59.9812769" lon="17.7385582">
        <ele>47.7225</ele>
        <time>2012-03-03T18:53:10Z</time>
      </trkpt>
      <trkpt lat="59.9811861" lon="17.7386004">
        <ele>47.7225</ele>
        <time>2012-03-03T18:53:15Z</time>
      </trkpt>
      <trkpt lat="59.9811338" lon="17.7386063">
        <ele>48.684</ele>
        <time>2012-03-03T18:53:19Z</time>
      </trkpt>
      <trkpt lat="59.9810806" lon="17.7386141">
        <ele>49.1646</ele>
        <time>2012-03-03T18:53:24Z</time>
      </trkpt>
      <trkpt lat="59.9809806" lon="17.7386555">
        <ele>51.0872</ele>
        <time>2012-03-03T18:53:31Z</time>
      </trkpt>
      <trkpt lat="59.9808874" lon="17.7386569">
        <ele>53.9712</ele>
        <time>2012-03-03T18:53:38Z</time>
      </trkpt>
      <trkpt lat="59.9808059" lon="17.7386601">
        <ele>50.6066</ele>
        <time>2012-03-03T18:53:43Z</time>
      </trkpt>
      <trkpt lat="59.9807185" lon="17.7386788">
        <ele>48.2034</ele>
        <time>2012-03-03T18:53:49Z</time>
      </trkpt>
      <trkpt lat="59.9806156" lon="17.7386881">
        <ele>45.7999</ele>
        <time>2012-03-03T18:53:55Z</time>
      </trkpt>
      <trkpt lat="59.980522" lon="17.7387341">
        <ele>45.7999</ele>
        <time>2012-03-03T18:54:01Z</time>
      </trkpt>
      <trkpt lat="59.9804659" lon="17.7387585">
        <ele>45.7999</ele>
        <time>2012-03-03T18:54:05Z</time>
      </trkpt>
      <trkpt lat="59.980387" lon="17.7387587">
        <ele>45.7999</ele>
        <time>2012-03-03T18:54:11Z</time>
      </trkpt>
      <trkpt lat="59.9802959" lon="17.7387765">
        <ele>47.2418</ele>
        <time>2012-03-03T18:54:18Z</time>
      </trkpt>
      <trkpt lat="59.9802109" lon="17.7387798">
        <ele>48.2034</ele>
        <time>2012-03-03T18:54:24Z</time>
      </trkpt>
      <trkpt lat="59.9801524" lon="17.7387798">
        <ele>47.2418</ele>
        <time>2012-03-03T18:54:28Z</time>
      </trkpt>
      <trkpt lat="59.9801327" lon="17.7387752">
        <ele>48.2034</ele>
        <time>2012-03-03T18:54:29Z</time>
      </trkpt>
      <trkpt lat="59.9800286" lon="17.7387517">
        <ele>45.3192</ele>
        <time>2012-03-03T18:54:36Z</time>
      </trkpt>
      <trkpt lat="59.9799176" lon="17.7387545">
        <ele>45.3192</ele>
        <time>2012-03-03T18:54:44Z</time>
      </trkpt>
      <trkpt lat="59.9798237" lon="17.7387539">
        <ele>43.8773</ele>
        <time>2012-03-03T18:54:51Z</time>
      </trkpt>
      <trkpt lat="59.9797188" lon="17.7387778">
        <ele>42.4354</ele>
        <time>2012-03-03T18:54:59Z</time>
      </trkpt>
      <trkpt lat="59.9796272" lon="17.7388741">
        <ele>41.9547</ele>
        <time>2012-03-03T18:55:07Z</time>
      </trkpt>
      <trkpt lat="59.9795504" lon="17.7389167">
        <ele>40.0321</ele>
        <time>2012-03-03T18:55:13Z</time>
      </trkpt>
      <trkpt lat="59.9794742" lon="17.7389509">
        <ele>40.0321</ele>
        <time>2012-03-03T18:55:18Z</time>
      </trkpt>
      <trkpt lat="59.9794525" lon="17.7389739">
        <ele>40.0321</ele>
        <time>2012-03-03T18:55:20Z</time>
      </trkpt>
      <trkpt lat="59.9793702" lon="17.7390031">
        <ele>39.0707</ele>
        <time>2012-03-03T18:55:26Z</time>
      </trkpt>
      <trkpt lat="59.9793589" lon="17.7390229">
        <ele>39.0707</ele>
        <time>2012-03-03T18:55:27Z</time>
      </trkpt>
      <trkpt lat="59.9793492" lon="17.739048">
        <ele>38.5901</ele>
        <time>2012-03-03T18:55:29Z</time>
      </trkpt>
      <trkpt lat="59.979294" lon="17.7390677">
        <ele>37.6287</ele>
        <time>2012-03-03T18:55:34Z</time>
      </trkpt>
      <trkpt lat="59.9792125" lon="17.739147">
        <ele>38.1094</ele>
        <time>2012-03-03T18:55:40Z</time>
      </trkpt>
      <trkpt lat="59.9791241" lon="17.7392098">
        <ele>36.1868</ele>
        <time>2012-03-03T18:55:46Z</time>
      </trkpt>
      <trkpt lat="59.979062" lon="17.7392296">
        <ele>35.7061</ele>
        <time>2012-03-03T18:55:49Z</time>
      </trkpt>
      <trkpt lat="59.9789866" lon="17.7392663">
        <ele>35.7061</ele>
        <time>2012-03-03T18:55:54Z</time>
      </trkpt>
      <trkpt lat="59.9789198" lon="17.7393401">
        <ele>36.6675</ele>
        <time>2012-03-03T18:55:59Z</time>
      </trkpt>
      <trkpt lat="59.9789117" lon="17.7394743">
        <ele>34.7449</ele>
        <time>2012-03-03T18:56:05Z</time>
      </trkpt>
      <trkpt lat="59.9788962" lon="17.7395377">
        <ele>34.7449</ele>
        <time>2012-03-03T18:56:08Z</time>
      </trkpt>
      <trkpt lat="59.9788781" lon="17.7396351">
        <ele>34.7449</ele>
        <time>2012-03-03T18:56:12Z</time>
      </trkpt>
      <trkpt lat="59.9788853" lon="17.7397014">
        <ele>35.7061</ele>
        <time>2012-03-03T18:56:15Z</time>
      </trkpt>
      <trkpt lat="59.9788895" lon="17.7397778">
        <ele>35.7061</ele>
        <time>2012-03-03T18:56:19Z</time>
      </trkpt>
      <trkpt lat="59.9788947" lon="17.7398155">
        <ele>36.1868</ele>
        <time>2012-03-03T18:56:21Z</time>
      </trkpt>
      <trkpt lat="59.9789164" lon="17.7399075">
        <ele>37.1481</ele>
        <time>2012-03-03T18:56:27Z</time>
      </trkpt>
      <trkpt lat="59.9789019" lon="17.7399309">
        <ele>37.6287</ele>
        <time>2012-03-03T18:56:29Z</time>
      </trkpt>
    </trkseg>
  </trk>
</gpx>